Time;durP1;ratioP1;P1;durP2;ratioP2;P2;SDS_P1;SDS_P2;PMS_P1;PMS_P2;Temp;Humidity;BMP_temperature;BMP_pressure;BME280_temperature;BME280_humidity;BME280_pressure;Samples;Min_cycle;Max_cycle;Signal;HPM_P1;HPM_P2
2021/08/07 00:01:18;;;;;;;1.90;1.20;;;;;;;14.90;87.69;99281.20;93813;1198;94818;-56
2021/08/07 00:03:29;;;;;;;3.40;1.10;;;;;;;14.91;87.64;99281.17;93771;1202;82649;-58
2021/08/07 00:05:36;;;;;;;1.60;1.10;;;;;;;14.90;87.58;99282.67;93788;1202;81785;-57
2021/08/07 00:07:44;;;;;;;1.50;1.20;;;;;;;14.93;87.62;99285.27;93765;1203;98449;-57
2021/08/07 00:09:51;;;;;;;2.60;1.40;;;;;;;14.95;87.56;99287.66;93774;1203;86415;-64
2021/08/07 00:11:59;;;;;;;1.90;1.60;;;;;;;14.97;87.46;99290.14;93807;1202;93626;-62
2021/08/07 00:14:07;;;;;;;3.20;1.40;;;;;;;14.96;87.44;99294.73;93786;1202;80584;-63
2021/08/07 00:16:15;;;;;;;1.90;1.50;;;;;;;14.94;87.44;99295.25;93852;1203;81685;-63
2021/08/07 00:18:23;;;;;;;1.90;1.50;;;;;;;14.92;87.57;99297.27;93771;1202;97399;-64
2021/08/07 00:20:30;;;;;;;1.70;1.40;;;;;;;14.89;87.56;99300.77;93823;1202;87853;-64
2021/08/07 00:22:38;;;;;;;3.30;1.70;;;;;;;14.92;87.45;99298.73;93791;1203;94528;-64
2021/08/07 00:24:47;;;;;;;2.80;1.40;;;;;;;14.92;87.41;99299.60;93754;1196;80315;-64
2021/08/07 00:26:55;;;;;;;2.30;1.50;;;;;;;14.93;87.46;99302.57;93712;1202;81806;-64
2021/08/07 00:29:03;;;;;;;1.90;1.60;;;;;;;14.91;87.46;99307.42;93767;1202;99172;-63
2021/08/07 00:31:11;;;;;;;2.70;1.60;;;;;;;14.88;87.43;99310.38;93803;1196;86894;-64
2021/08/07 00:33:18;;;;;;;2.20;1.50;;;;;;;14.80;87.50;99306.52;93814;1202;93429;-64
2021/08/07 00:35:27;;;;;;;2.50;1.50;;;;;;;14.79;87.52;99313.62;93766;1203;81091;-64
2021/08/07 00:37:35;;;;;;;2.20;1.80;;;;;;;14.81;87.32;99312.56;93802;1196;80030;-66
2021/08/07 00:39:43;;;;;;;2.80;1.90;;;;;;;14.82;87.34;99313.63;93715;1202;98663;-58
2021/08/07 00:41:50;;;;;;;2.10;1.70;;;;;;;14.79;87.40;99320.04;93733;1202;87389;-59
2021/08/07 00:43:58;;;;;;;3.50;1.70;;;;;;;14.77;87.31;99321.15;93722;1196;92993;-60
2021/08/07 00:46:05;;;;;;;2.20;1.70;;;;;;;14.78;87.37;99322.47;93707;1190;79790;-60
2021/08/07 00:48:13;;;;;;;2.30;1.80;;;;;;;14.78;87.33;99324.16;93740;1202;81513;-60
2021/08/07 00:50:21;;;;;;;2.90;2.20;;;;;;;14.77;87.35;99328.05;93698;1202;98501;-60
2021/08/07 00:52:32;;;;;;;2.40;2.10;;;;;;;14.72;87.38;99326.98;93774;1203;87504;-60
2021/08/07 00:54:41;;;;;;;2.50;2.00;;;;;;;14.73;87.38;99330.59;93728;1202;94623;-59
2021/08/07 00:56:49;;;;;;;3.10;1.90;;;;;;;14.74;87.40;99332.92;93820;1196;80246;-60
2021/08/07 00:58:57;;;;;;;3.00;2.10;;;;;;;14.72;87.43;99334.48;93757;1203;80937;-66
2021/08/07 01:01:08;;;;;;;4.10;2.30;;;;;;;14.69;87.48;99331.23;93739;1203;98758;-67
2021/08/07 01:03:27;;;;;;;2.30;2.10;;;;;;;14.66;87.56;99338.11;93727;1203;87506;-67
2021/08/07 01:05:45;;;;;;;3.00;2.10;;;;;;;14.67;87.37;99341.43;93681;1202;94523;-66
2021/08/07 01:08:02;;;;;;;3.00;2.00;;;;;;;14.67;87.34;99347.08;93669;1202;80746;-66
2021/08/07 01:10:17;;;;;;;3.80;1.90;;;;;;;14.65;87.29;99349.63;93658;1202;80774;-66
2021/08/07 01:12:33;;;;;;;4.40;2.20;;;;;;;14.63;87.31;99351.23;93706;1203;98522;-66
2021/08/07 01:14:43;;;;;;;3.90;2.10;;;;;;;14.59;87.28;99347.75;93772;1202;86979;-67
2021/08/07 01:16:54;;;;;;;2.10;1.70;;;;;;;14.53;87.27;99355.35;93720;1203;93725;-67
2021/08/07 01:19:05;;;;;;;3.50;1.80;;;;;;;14.46;87.25;99357.47;93722;1202;80964;-59
2021/08/07 01:21:19;;;;;;;4.80;1.80;;;;;;;14.45;87.26;99355.55;93694;1196;83100;-58
2021/08/07 01:23:44;;;;;;;2.80;1.70;;;;;;;14.44;87.23;99354.67;93776;1202;98386;-59
2021/08/07 01:26:01;;;;;;;4.70;1.90;;;;;;;14.44;87.22;99352.88;93817;1203;88157;-65
2021/08/07 01:28:10;;;;;;;3.30;1.70;;;;;;;14.42;87.13;99348.64;93759;1202;94756;-66
2021/08/07 01:30:21;;;;;;;3.80;2.10;;;;;;;14.37;87.13;99348.54;93666;1202;80545;-58
2021/08/07 01:32:32;;;;;;;3.30;1.90;;;;;;;14.39;87.07;99354.18;93711;1202;81554;-58
2021/08/07 01:34:43;;;;;;;4.30;1.70;;;;;;;14.36;87.13;99355.80;93763;1202;98501;-59
2021/08/07 01:36:53;;;;;;;4.70;2.30;;;;;;;14.34;87.12;99359.67;93882;1196;86060;-59
2021/08/07 01:39:01;;;;;;;2.30;1.50;;;;;;;14.31;87.11;99358.66;93778;1202;94553;-65
2021/08/07 01:41:19;;;;;;;2.80;1.60;;;;;;;14.32;87.13;99356.45;93770;1202;80617;-67
2021/08/07 01:43:28;;;;;;;2.30;2.00;;;;;;;14.31;87.05;99358.80;93813;1202;82271;-60
2021/08/07 01:45:36;;;;;;;3.00;2.10;;;;;;;14.30;87.09;99359.85;93775;1202;98513;-59
2021/08/07 01:47:59;;;;;;;3.40;2.30;;;;;;;14.28;87.07;99361.73;93798;1203;87841;-58
2021/08/07 01:50:14;;;;;;;3.20;1.80;;;;;;;14.29;87.21;99357.14;93827;1196;92780;-67
2021/08/07 01:52:27;;;;;;;3.70;1.80;;;;;;;14.27;87.08;99363.67;93812;1202;80866;-66
2021/08/07 01:54:42;;;;;;;2.80;1.80;;;;;;;14.29;87.14;99358.71;93810;1189;81553;-65
2021/08/07 01:56:52;;;;;;;3.10;1.90;;;;;;;14.26;87.20;99362.44;93832;1203;99184;-66
2021/08/07 01:59:04;;;;;;;5.80;1.80;;;;;;;14.25;87.20;99360.70;93700;1203;86904;-58
2021/08/07 02:01:13;;;;;;;3.60;1.90;;;;;;;14.22;87.19;99361.94;93802;1202;94604;-58
2021/08/07 02:03:27;;;;;;;3.10;1.50;;;;;;;14.20;87.15;99362.48;93732;1202;81947;-59
2021/08/07 02:05:36;;;;;;;3.60;2.00;;;;;;;14.22;87.18;99361.48;93711;1202;82109;-59
2021/08/07 02:07:44;;;;;;;2.90;1.80;;;;;;;14.18;87.25;99362.77;93744;1203;98733;-59
2021/08/07 02:09:52;;;;;;;3.60;1.90;;;;;;;14.17;87.28;99364.81;93801;1202;87840;-65
2021/08/07 02:12:00;;;;;;;5.30;2.30;;;;;;;14.18;87.20;99370.69;93815;1202;94222;-65
2021/08/07 02:14:09;;;;;;;3.30;1.90;;;;;;;14.16;87.23;99370.52;93708;1203;79806;-58
2021/08/07 02:16:19;;;;;;;4.70;2.00;;;;;;;14.17;87.29;99372.67;93839;1196;80455;-59
2021/08/07 02:18:32;;;;;;;3.60;2.20;;;;;;;14.18;87.31;99374.23;93810;1202;99774;-63
2021/08/07 02:20:41;;;;;;;3.60;2.00;;;;;;;14.20;87.20;99378.52;93721;1202;87542;-59
2021/08/07 02:22:52;;;;;;;3.30;1.80;;;;;;;14.20;87.18;99381.02;93798;1202;94041;-60
2021/08/07 02:25:00;;;;;;;2.40;1.70;;;;;;;14.18;87.14;99378.25;93781;1203;79335;-66
2021/08/07 02:27:08;;;;;;;3.00;1.80;;;;;;;14.16;87.09;99380.38;93802;1202;81825;-64
2021/08/07 02:29:16;;;;;;;5.20;2.00;;;;;;;14.16;87.16;99387.61;93784;1202;99476;-66
2021/08/07 02:31:25;;;;;;;4.20;1.90;;;;;;;14.16;87.21;99391.34;93817;1202;87815;-66
2021/08/07 02:33:35;;;;;;;2.90;1.90;;;;;;;14.11;87.26;99392.16;93803;1202;93456;-60
2021/08/07 02:35:44;;;;;;;3.90;2.30;;;;;;;14.09;87.11;99393.52;93768;1202;81203;-60
2021/08/07 02:37:53;;;;;;;2.70;1.70;;;;;;;14.08;87.01;99396.06;93818;1196;80439;-60
2021/08/07 02:40:02;;;;;;;4.40;2.30;;;;;;;14.06;87.12;99399.64;93737;1203;98703;-65
2021/08/07 02:42:09;;;;;;;3.20;1.70;;;;;;;14.05;87.12;99400.85;93844;1203;86474;-65
2021/08/07 02:44:18;;;;;;;4.80;2.30;;;;;;;14.01;87.13;99406.65;93787;1202;93903;-59
2021/08/07 02:46:26;;;;;;;2.70;1.70;;;;;;;13.93;87.13;99409.54;93827;1203;80444;-59
2021/08/07 02:48:35;;;;;;;5.40;2.20;;;;;;;13.91;87.14;99410.67;93842;1202;81321;-58
2021/08/07 02:50:45;;;;;;;4.20;2.00;;;;;;;13.88;87.18;99411.59;93765;1202;98664;-62
2021/08/07 02:52:57;;;;;;;4.10;2.20;;;;;;;13.87;87.26;99413.41;93849;1202;86933;-62
2021/08/07 02:55:06;;;;;;;3.50;1.90;;;;;;;13.89;87.30;99415.30;93784;1203;94065;-62
2021/08/07 02:57:14;;;;;;;4.50;2.40;;;;;;;13.87;87.32;99410.58;93860;1202;79630;-64
2021/08/07 02:59:24;;;;;;;3.60;1.90;;;;;;;13.90;87.32;99418.53;93839;1202;81473;-66
2021/08/07 03:01:32;;;;;;;4.30;2.00;;;;;;;13.90;87.24;99426.19;93841;1203;97378;-66
2021/08/07 03:03:41;;;;;;;2.40;1.70;;;;;;;13.87;87.21;99430.02;93803;1202;88844;-66
2021/08/07 03:05:48;;;;;;;3.50;2.00;;;;;;;13.87;87.18;99429.81;93831;1202;93970;-67
2021/08/07 03:07:56;;;;;;;4.10;2.20;;;;;;;13.83;87.10;99429.05;93766;1203;79119;-66
2021/08/07 03:10:04;;;;;;;4.10;2.30;;;;;;;13.76;87.12;99435.61;93780;1199;80364;-60
2021/08/07 03:12:12;;;;;;;3.70;1.90;;;;;;;13.71;87.11;99431.46;93763;1204;98221;-61
2021/08/07 03:14:22;;;;;;;4.50;2.30;;;;;;;13.67;87.23;99433.54;93710;1204;87966;-67
2021/08/07 03:16:31;;;;;;;5.50;2.80;;;;;;;13.66;87.18;99435.73;93790;1205;92918;-70
2021/08/07 03:18:39;;;;;;;8.80;2.20;;;;;;;13.67;87.25;99436.02;93770;1195;77135;-58
2021/08/07 03:20:46;;;;;;;3.10;2.20;;;;;;;13.70;87.36;99433.72;93772;1204;82564;-60
2021/08/07 03:22:54;;;;;;;3.60;2.30;;;;;;;13.73;87.39;99430.27;93757;1204;98616;-59
2021/08/07 03:25:03;;;;;;;4.00;2.20;;;;;;;13.76;87.54;99428.98;93738;1205;87932;-65
2021/08/07 03:27:12;;;;;;;3.80;1.90;;;;;;;13.83;87.64;99430.30;93748;1204;93997;-65
2021/08/07 03:29:20;;;;;;;3.40;2.20;;;;;;;13.88;87.74;99431.51;93675;1189;77781;-66
2021/08/07 03:31:29;;;;;;;2.90;2.10;;;;;;;13.93;87.74;99428.60;93724;1203;81146;-66
2021/08/07 03:33:36;;;;;;;3.00;2.30;;;;;;;13.95;87.71;99430.98;93774;1204;98605;-59
2021/08/07 03:35:44;;;;;;;4.60;1.80;;;;;;;13.98;87.70;99437.73;93689;1204;88192;-60
2021/08/07 03:37:52;;;;;;;4.90;2.30;;;;;;;14.03;87.64;99434.98;93738;1204;93805;-60
2021/08/07 03:40:00;;;;;;;6.70;2.40;;;;;;;14.09;87.61;99433.16;93728;1189;77259;-60
2021/08/07 03:42:08;;;;;;;3.60;2.10;;;;;;;14.10;87.66;99436.69;93756;1204;81032;-59
2021/08/07 03:44:15;;;;;;;5.20;2.80;;;;;;;14.11;87.65;99436.64;93674;1196;97281;-67
2021/08/07 03:46:23;;;;;;;4.20;2.10;;;;;;;14.13;87.62;99441.15;93734;1196;87160;-67
2021/08/07 03:48:30;;;;;;;5.40;2.10;;;;;;;14.19;87.64;99438.25;93738;1204;93566;-60
2021/08/07 03:50:38;;;;;;;2.30;1.70;;;;;;;14.28;87.65;99443.39;93659;1204;78912;-59
2021/08/07 03:52:46;;;;;;;6.10;2.30;;;;;;;14.33;87.57;99450.06;93783;1204;81107;-59
2021/08/07 03:54:56;;;;;;;4.00;2.50;;;;;;;14.39;87.50;99453.52;93703;1204;99248;-59
2021/08/07 03:57:04;;;;;;;3.50;2.20;;;;;;;14.37;87.47;99454.63;93716;1197;87514;-59
2021/08/07 03:59:15;;;;;;;4.20;2.20;;;;;;;14.40;87.48;99455.17;93737;1199;92373;-59
2021/08/07 04:01:22;;;;;;;6.90;2.50;;;;;;;14.43;87.47;99454.98;93710;1205;79825;-61
2021/08/07 04:03:30;;;;;;;4.90;2.60;;;;;;;14.51;87.43;99456.41;93663;1204;81932;-60
2021/08/07 04:05:38;;;;;;;4.80;2.30;;;;;;;14.56;87.43;99456.67;93626;1204;98422;-60
2021/08/07 04:07:49;;;;;;;6.40;2.60;;;;;;;14.62;87.42;99455.77;93816;1202;86561;-60
2021/08/07 04:09:57;;;;;;;7.20;2.30;;;;;;;14.65;87.46;99458.52;93795;1203;94008;-59
2021/08/07 04:12:08;;;;;;;4.80;2.20;;;;;;;14.73;87.35;99460.16;93751;1204;79350;-60
2021/08/07 04:14:16;;;;;;;4.30;2.60;;;;;;;14.79;87.33;99462.66;93776;1203;80930;-61
2021/08/07 04:16:25;;;;;;;4.00;2.40;;;;;;;14.84;87.23;99463.90;93845;1202;98735;-59
2021/08/07 04:18:32;;;;;;;4.40;2.30;;;;;;;14.84;87.17;99464.91;93811;1198;87197;-66
2021/08/07 04:20:40;;;;;;;3.40;2.10;;;;;;;14.90;87.13;99461.97;93698;1202;93374;-66
2021/08/07 04:22:51;;;;;;;4.80;2.30;;;;;;;15.00;87.10;99464.63;93738;1202;81696;-67
2021/08/07 04:24:59;;;;;;;4.90;2.00;;;;;;;15.06;87.01;99466.67;93779;1202;81624;-59
2021/08/07 04:27:07;;;;;;;3.80;2.60;;;;;;;15.09;86.88;99466.52;93831;1203;96577;-60
2021/08/07 04:29:17;;;;;;;4.30;3.50;;;;;;;15.14;86.79;99469.39;93850;1202;88457;-58
2021/08/07 04:31:25;;;;;;;3.90;2.10;;;;;;;15.14;86.76;99469.67;93768;1203;93952;-59
2021/08/07 04:33:33;;;;;;;3.30;2.60;;;;;;;15.17;86.69;99467.17;93829;1201;81316;-66
2021/08/07 04:35:41;;;;;;;5.00;2.10;;;;;;;15.23;86.62;99469.95;93806;1202;80309;-65
2021/08/07 04:37:54;;;;;;;4.00;2.30;;;;;;;15.27;86.55;99468.40;93836;1203;98980;-66
2021/08/07 04:40:00;;;;;;;;;;;;;;;15.28;86.53;99467.87;93814;1195;87497;-60
2021/08/07 04:42:08;;;;;;;4.50;2.60;;;;;;;15.28;86.44;99466.58;93811;1202;93382;-59
2021/08/07 04:44:16;;;;;;;5.70;2.40;;;;;;;15.24;86.38;99472.75;93747;1202;79974;-59
2021/08/07 04:46:24;;;;;;;4.20;2.30;;;;;;;15.25;86.25;99475.01;93800;1202;81799;-58
2021/08/07 04:48:31;;;;;;;6.10;2.30;;;;;;;15.22;86.22;99477.33;93815;1202;98703;-64
2021/08/07 04:50:39;;;;;;;4.80;2.40;;;;;;;15.26;86.17;99485.42;93829;1202;88338;-66
2021/08/07 04:52:47;;;;;;;3.50;2.40;;;;;;;15.25;86.08;99486.00;93767;1203;93865;-65
2021/08/07 04:54:55;;;;;;;5.00;2.50;;;;;;;15.21;85.93;99491.46;93777;1203;80541;-65
2021/08/07 04:57:02;;;;;;;3.20;2.50;;;;;;;15.17;85.95;99493.34;93792;1199;80307;-66
2021/08/07 04:59:10;;;;;;;3.20;2.30;;;;;;;15.21;85.88;99492.29;93798;1202;97028;-59
2021/08/07 05:01:17;;;;;;;4.50;2.60;;;;;;;15.32;85.94;99493.48;93793;1196;86356;-58
2021/08/07 05:03:28;;;;;;;4.30;2.50;;;;;;;15.40;85.75;99491.52;93808;1202;93617;-59
2021/08/07 05:05:35;;;;;;;5.10;2.50;;;;;;;15.42;85.61;99486.98;93841;1196;78047;-60
2021/08/07 05:07:44;;;;;;;4.10;2.60;;;;;;;15.47;85.25;99493.58;93817;1202;82298;-60
2021/08/07 05:09:54;;;;;;;3.90;2.40;;;;;;;15.40;85.14;99488.58;93774;1202;99016;-66
2021/08/07 05:12:05;;;;;;;4.40;2.20;;;;;;;15.39;84.98;99487.35;93816;1202;86401;-65
2021/08/07 05:14:13;;;;;;;6.60;3.00;;;;;;;15.40;84.91;99484.44;93769;1202;92560;-58
2021/08/07 05:16:20;;;;;;;6.10;2.70;;;;;;;15.69;85.33;99483.80;93810;1190;78405;-58
2021/08/07 05:18:28;;;;;;;5.00;2.60;;;;;;;16.92;86.02;99482.66;93796;1204;81379;-62
2021/08/07 05:20:36;;;;;;;7.20;2.80;;;;;;;18.39;85.23;99483.02;93764;1199;97115;-60
2021/08/07 05:22:47;;;;;;;5.60;2.80;;;;;;;20.35;83.88;99482.83;93799;1202;87909;-58
2021/08/07 05:24:55;;;;;;;5.90;2.40;;;;;;;22.02;81.16;99478.19;93777;1203;93737;-65
2021/08/07 05:27:02;;;;;;;3.70;2.30;;;;;;;23.36;78.53;99478.15;93791;1202;79645;-66
2021/08/07 05:29:13;;;;;;;4.50;2.40;;;;;;;24.65;76.32;99481.83;93783;1196;82052;-65
2021/08/07 05:31:20;;;;;;;3.80;2.00;;;;;;;25.64;73.28;99478.25;93770;1202;99585;-65
2021/08/07 05:33:31;;;;;;;3.60;2.20;;;;;;;26.36;70.67;99478.95;93849;1202;87984;-63
2021/08/07 05:35:39;;;;;;;3.00;1.70;;;;;;;27.12;68.51;99483.67;93703;1203;93887;-65
2021/08/07 05:37:46;;;;;;;3.60;2.00;;;;;;;27.73;66.60;99481.31;93800;1189;78427;-66
2021/08/07 05:39:54;;;;;;;4.00;1.90;;;;;;;28.14;64.48;99479.77;93846;1202;80507;-58
2021/08/07 05:42:01;;;;;;;3.60;1.90;;;;;;;28.67;62.80;99481.34;93818;1196;98245;-59
2021/08/07 05:44:09;;;;;;;3.40;1.90;;;;;;;28.96;61.10;99486.98;93778;1202;88911;-65
2021/08/07 05:46:20;;;;;;;5.20;1.80;;;;;;;29.27;59.67;99483.38;93832;1196;92708;-66
2021/08/07 05:48:28;;;;;;;3.50;1.50;;;;;;;29.46;58.25;99484.16;93812;1202;79139;-65
2021/08/07 05:50:35;;;;;;;4.10;1.70;;;;;;;29.84;57.19;99485.80;93780;1196;80801;-58
2021/08/07 05:52:43;;;;;;;2.60;1.90;;;;;;;30.10;56.21;99480.11;93802;1202;99275;-61
2021/08/07 05:54:51;;;;;;;3.70;1.70;;;;;;;30.02;55.03;99480.77;93825;1202;88331;-67
2021/08/07 05:56:59;;;;;;;4.00;1.90;;;;;;;30.20;54.30;99481.59;93815;1203;94864;-66
2021/08/07 05:59:06;;;;;;;4.10;1.70;;;;;;;30.35;53.57;99483.54;93790;1203;79274;-66
2021/08/07 06:01:14;;;;;;;4.10;2.00;;;;;;;30.70;52.87;99480.04;93793;1202;81452;-66
2021/08/07 06:03:25;;;;;;;3.50;1.80;;;;;;;30.86;51.87;99479.77;93800;1202;98409;-67
2021/08/07 06:05:32;;;;;;;3.20;1.60;;;;;;;30.98;51.07;99484.81;93816;1202;87459;-67
2021/08/07 06:07:40;;;;;;;3.00;1.50;;;;;;;31.39;50.54;99484.90;93827;1202;92284;-66
2021/08/07 06:09:48;;;;;;;3.80;1.60;;;;;;;31.60;49.45;99484.48;93768;1198;78227;-59
2021/08/07 06:11:55;;;;;;;3.90;1.70;;;;;;;31.48;49.54;99483.84;93837;1196;82626;-59
2021/08/07 06:14:06;;;;;;;4.50;1.70;;;;;;;31.06;49.38;99488.90;93750;1202;98350;-58
2021/08/07 06:16:14;;;;;;;3.40;1.60;;;;;;;30.75;48.99;99491.23;93801;1202;86696;-58
2021/08/07 06:18:22;;;;;;;3.10;1.70;;;;;;;31.09;48.58;99489.86;93784;1202;94174;-59
2021/08/07 06:20:30;;;;;;;2.40;1.60;;;;;;;31.05;48.80;99493.26;93768;1199;78199;-66
2021/08/07 06:22:39;;;;;;;2.60;1.70;;;;;;;30.80;48.23;99490.63;93825;1202;82778;-67
2021/08/07 06:24:46;;;;;;;3.10;1.70;;;;;;;30.21;48.56;99500.27;93797;1203;98999;-72
2021/08/07 06:26:54;;;;;;;3.60;1.90;;;;;;;29.48;49.19;99503.49;93814;1202;86537;-73
2021/08/07 06:29:02;;;;;;;3.00;1.60;;;;;;;28.37;49.27;99505.79;93728;1202;94274;-60
2021/08/07 06:31:10;;;;;;;2.60;1.20;;;;;;;27.15;50.70;99510.73;93801;1203;79003;-60
2021/08/07 06:33:17;;;;;;;2.50;1.40;;;;;;;26.17;52.12;99512.60;93814;1202;81254;-62
2021/08/07 06:35:25;;;;;;;3.10;1.30;;;;;;;25.65;52.96;99512.99;93725;1202;98763;-73
2021/08/07 06:37:39;;;;;;;3.50;1.40;;;;;;;25.27;53.46;99515.86;93773;1196;87336;-73
2021/08/07 06:39:47;;;;;;;2.70;1.30;;;;;;;25.09;54.29;99521.20;93742;1203;94676;-73
2021/08/07 06:41:54;;;;;;;1.90;1.50;;;;;;;24.82;54.93;99519.20;93830;1188;78228;-70
2021/08/07 06:44:02;;;;;;;2.10;1.30;;;;;;;24.35;55.77;99521.73;93756;1203;82921;-71
2021/08/07 06:46:10;;;;;;;3.30;1.50;;;;;;;23.86;56.86;99523.70;93757;1202;97397;-70
2021/08/07 06:48:18;;;;;;;2.50;1.50;;;;;;;23.45;57.45;99524.65;93825;1202;88136;-72
2021/08/07 06:50:31;;;;;;;3.20;1.50;;;;;;;23.32;58.21;99521.25;93755;1202;94099;-71
2021/08/07 06:52:39;;;;;;;4.50;1.80;;;;;;;23.30;59.07;99520.13;93729;1198;77867;-73
2021/08/07 06:54:47;;;;;;;2.90;1.30;;;;;;;23.03;59.30;99519.65;93807;1202;79086;-57
2021/08/07 06:56:54;;;;;;;5.40;1.60;;;;;;;22.69;59.72;99524.41;93826;1202;98814;-59
2021/08/07 06:59:02;;;;;;;3.00;1.40;;;;;;;22.41;60.42;99524.63;93784;1203;88337;-70
2021/08/07 07:01:09;;;;;;;4.30;1.70;;;;;;;22.35;60.84;99521.11;93761;1202;95270;-72
2021/08/07 07:03:17;;;;;;;5.40;1.50;;;;;;;22.42;61.03;99518.95;93803;1203;80121;-71
2021/08/07 07:05:29;;;;;;;3.30;1.90;;;;;;;22.36;61.23;99522.47;93724;1202;80589;-75
2021/08/07 07:07:38;;;;;;;3.40;1.40;;;;;;;22.34;61.34;99521.81;93692;1202;99584;-73
2021/08/07 07:09:49;;;;;;;2.20;1.50;;;;;;;22.69;61.62;99525.40;93727;1203;88056;-71
2021/08/07 07:11:56;;;;;;;3.60;1.30;;;;;;;23.00;61.36;99521.83;93793;1202;94241;-71
2021/08/07 07:14:05;;;;;;;3.80;1.90;;;;;;;23.89;61.14;99520.57;93706;1202;77099;-69
2021/08/07 07:16:12;;;;;;;3.70;1.60;;;;;;;25.34;59.94;99523.34;93763;1203;82138;-69
2021/08/07 07:18:20;;;;;;;4.10;1.60;;;;;;;26.85;58.18;99521.09;93800;1202;98885;-68
2021/08/07 07:20:29;;;;;;;3.20;1.70;;;;;;;28.12;56.01;99521.13;93789;1203;87472;-58
2021/08/07 07:22:37;;;;;;;2.40;1.30;;;;;;;29.24;54.66;99524.36;93820;1202;95578;-59
2021/08/07 07:24:45;;;;;;;3.90;1.40;;;;;;;30.14;53.17;99521.48;93825;1202;78509;-57
2021/08/07 07:26:53;;;;;;;3.00;1.40;;;;;;;30.81;51.23;99515.50;93786;1189;81598;-59
2021/08/07 07:29:01;;;;;;;2.20;1.40;;;;;;;31.40;50.24;99517.48;93793;1202;98259;-70
2021/08/07 07:31:08;;;;;;;3.30;1.20;;;;;;;31.98;49.34;99519.14;93808;1202;87569;-71
2021/08/07 07:33:16;;;;;;;2.90;1.20;;;;;;;32.39;48.61;99519.10;93771;1203;94518;-72
2021/08/07 07:35:29;;;;;;;4.70;1.50;;;;;;;32.75;47.36;99522.41;93784;1203;78619;-73
2021/08/07 07:37:37;;;;;;;2.10;1.10;;;;;;;33.22;46.94;99524.25;93739;1196;81658;-71
2021/08/07 07:39:45;;;;;;;3.20;1.80;;;;;;;33.59;45.80;99528.02;93715;1202;99229;-63
2021/08/07 07:41:53;;;;;;;3.70;1.30;;;;;;;33.73;45.25;99530.91;93745;1196;86651;-65
2021/08/07 07:44:04;;;;;;;2.00;1.30;;;;;;;33.87;44.35;99530.35;93737;1203;94680;-73
2021/08/07 07:46:15;;;;;;;1.50;1.20;;;;;;;34.00;43.47;99530.84;93743;1196;77954;-73
2021/08/07 07:48:25;;;;;;;2.60;1.30;;;;;;;34.16;42.74;99529.95;93821;1202;80658;-74
2021/08/07 07:50:33;;;;;;;2.50;1.40;;;;;;;34.24;42.20;99530.77;93791;1202;98394;-60
2021/08/07 07:52:42;;;;;;;3.30;1.10;;;;;;;34.51;41.43;99531.32;93761;1203;88622;-60
2021/08/07 07:54:50;;;;;;;1.60;1.10;;;;;;;34.53;41.04;99530.73;93727;1202;93235;-60
2021/08/07 07:56:57;;;;;;;3.10;1.30;;;;;;;34.53;40.82;99532.08;93778;1203;79919;-59
2021/08/07 07:59:05;;;;;;;3.80;1.40;;;;;;;34.52;40.50;99533.25;93755;1203;81989;-73
2021/08/07 08:01:16;;;;;;;3.00;1.40;;;;;;;34.44;39.94;99537.25;93740;1202;97415;-69
2021/08/07 08:03:24;;;;;;;2.90;1.30;;;;;;;34.52;40.38;99546.33;93800;1202;86581;-70
2021/08/07 08:05:31;;;;;;;2.90;1.20;;;;;;;34.58;40.25;99544.08;93791;1203;94947;-69
2021/08/07 08:07:42;;;;;;;2.90;1.50;;;;;;;34.54;40.23;99547.41;93812;1203;79392;-70
2021/08/07 08:09:50;;;;;;;1.70;1.20;;;;;;;34.34;39.67;99549.31;93811;1203;82276;-79
2021/08/07 08:12:04;;;;;;;1.70;1.20;;;;;;;34.25;39.69;99553.12;93785;1203;98117;-79
2021/08/07 08:14:12;;;;;;;2.20;1.30;;;;;;;34.23;39.37;99557.16;93734;1195;86610;-80
2021/08/07 08:16:22;;;;;;;2.60;1.70;;;;;;;34.19;38.86;99561.23;93780;1203;94243;-76
2021/08/07 08:18:30;;;;;;;2.20;1.30;;;;;;;34.13;38.83;99563.27;93826;1198;77805;-75
2021/08/07 08:20:38;;;;;;;2.70;1.50;;;;;;;34.12;38.59;99561.05;93822;1196;81141;-75
2021/08/07 08:22:49;;;;;;;2.70;1.30;;;;;;;34.27;38.39;99562.08;93751;1202;99113;-70
2021/08/07 08:24:57;;;;;;;3.00;1.50;;;;;;;34.33;38.15;99559.80;93910;1193;86525;-71
2021/08/07 08:27:05;;;;;;;2.70;1.50;;;;;;;34.35;38.47;99559.73;93738;1204;94502;-70
2021/08/07 08:29:13;;;;;;;2.70;1.50;;;;;;;34.18;38.03;99557.38;93762;1203;79592;-70
2021/08/07 08:31:21;;;;;;;3.90;1.50;;;;;;;34.12;38.07;99559.56;93802;1203;82151;-67
2021/08/07 08:33:29;;;;;;;2.30;1.50;;;;;;;34.14;38.43;99560.73;93684;1198;97813;-67
2021/08/07 08:35:37;;;;;;;5.90;1.80;;;;;;;34.08;38.18;99564.27;93685;1204;88242;-76
2021/08/07 08:37:44;;;;;;;2.20;1.50;;;;;;;34.10;38.25;99566.33;93739;1204;94623;-76
2021/08/07 08:39:52;;;;;;;3.10;1.60;;;;;;;33.93;38.35;99565.97;93726;1197;78624;-72
2021/08/07 08:42:01;;;;;;;3.70;1.80;;;;;;;33.63;37.96;99562.77;93744;1204;82633;-72
2021/08/07 08:44:08;;;;;;;2.70;1.40;;;;;;;33.68;38.63;99564.49;93740;1196;96450;-75
2021/08/07 08:46:16;;;;;;;2.20;1.50;;;;;;;33.72;38.04;99564.60;93714;1205;87540;-66
2021/08/07 08:48:26;;;;;;;2.60;1.60;;;;;;;33.78;38.82;99573.16;93695;1204;94268;-66
2021/08/07 08:50:34;;;;;;;2.50;1.40;;;;;;;33.89;38.83;99571.39;93722;1204;79600;-75
2021/08/07 08:52:43;;;;;;;2.00;1.80;;;;;;;33.62;38.80;99575.80;93762;1198;82382;-76
2021/08/07 08:54:52;;;;;;;4.70;2.10;;;;;;;33.64;39.29;99576.47;93714;1204;97975;-75
2021/08/07 08:57:00;;;;;;;2.00;1.50;;;;;;;33.60;38.73;99581.33;93748;1198;86094;-66
2021/08/07 08:59:10;;;;;;;2.30;1.70;;;;;;;33.70;39.24;99581.77;93749;1203;93577;-64
2021/08/07 09:01:20;;;;;;;2.40;1.70;;;;;;;33.69;38.02;99584.60;93749;1204;79514;-74
2021/08/07 09:03:28;;;;;;;2.00;1.50;;;;;;;33.59;38.39;99584.35;93765;1204;81519;-75
2021/08/07 09:05:36;;;;;;;3.80;1.60;;;;;;;33.40;38.76;99590.30;93695;1205;97572;-77
2021/08/07 09:07:45;;;;;;;2.90;1.80;;;;;;;33.33;39.10;99593.41;93734;1204;86820;-73
2021/08/07 09:09:57;;;;;;;3.40;1.50;;;;;;;33.24;38.87;99590.39;93708;1198;94093;-65
2021/08/07 09:12:04;;;;;;;;;;;;;;;33.25;38.94;99589.05;93748;1204;78780;-73
2021/08/07 09:14:26;;;;;;;6.80;2.00;;;;;;;33.21;38.44;99591.90;93752;1204;82767;-81
2021/08/07 09:16:34;;;;;;;2.90;1.60;;;;;;;33.10;39.04;99590.16;93734;1205;99641;-66
2021/08/07 09:18:41;;;;;;;2.50;1.80;;;;;;;33.14;38.89;99591.64;93711;1205;88856;-67
2021/08/07 09:20:52;;;;;;;2.60;2.20;;;;;;;33.20;38.44;99591.09;93753;1204;93633;-75
2021/08/07 09:22:59;;;;;;;2.00;1.80;;;;;;;33.25;38.89;99592.80;93717;1204;79849;-63
2021/08/07 09:25:13;;;;;;;2.50;1.90;;;;;;;33.01;38.44;99589.18;93750;1204;81960;-63
2021/08/07 09:27:29;;;;;;;2.90;1.60;;;;;;;32.81;38.70;99590.91;93763;1204;98668;-63
2021/08/07 09:29:41;;;;;;;2.60;1.70;;;;;;;32.26;39.17;99587.83;93744;1204;87443;-66
2021/08/07 09:32:00;;;;;;;2.60;1.90;;;;;;;32.00;39.29;99590.75;93697;1205;94131;-74
2021/08/07 09:34:23;;;;;;;3.80;1.70;;;;;;;31.67;40.22;99594.67;93713;1197;77928;-76
2021/08/07 09:36:48;;;;;;;2.70;1.90;;;;;;;31.10;40.51;99590.99;93718;1204;81842;-64
2021/08/07 09:38:56;;;;;;;2.60;1.90;;;;;;;30.69;41.38;99598.41;93755;1204;98612;-64
2021/08/07 09:41:08;;;;;;;2.90;1.90;;;;;;;30.35;41.58;99600.20;93668;1199;86738;-73
2021/08/07 09:43:18;;;;;;;3.60;1.40;;;;;;;30.13;42.29;99603.73;93702;1203;93897;-76
2021/08/07 09:45:28;;;;;;;3.70;1.70;;;;;;;30.01;42.29;99607.92;93745;1204;78916;-72
2021/08/07 09:47:46;;;;;;;2.10;1.60;;;;;;;29.76;43.39;99611.20;93770;1196;80167;-77
2021/08/07 09:49:54;;;;;;;4.00;2.00;;;;;;;29.47;44.80;99610.11;93718;1204;98536;-75
2021/08/07 09:52:01;;;;;;;2.90;1.80;;;;;;;29.28;44.81;99610.56;93744;1205;88012;-69
2021/08/07 09:54:14;;;;;;;3.80;1.90;;;;;;;29.04;44.27;99609.50;93687;1205;94623;-73
2021/08/07 09:56:26;;;;;;;5.10;2.00;;;;;;;28.81;44.63;99611.80;93739;1204;79830;-64
2021/08/07 09:58:34;;;;;;;3.00;2.00;;;;;;;28.63;45.45;99616.84;93759;1204;81965;-63
2021/08/07 10:00:45;;;;;;;4.00;1.80;;;;;;;28.53;46.33;99620.97;93791;1203;98942;-68
2021/08/07 10:03:13;;;;;;;4.90;2.30;;;;;;;28.33;45.20;99624.55;93707;1204;87642;-68
2021/08/07 10:05:28;;;;;;;2.90;1.90;;;;;;;28.05;45.62;99627.55;93704;1205;94671;-68
2021/08/07 10:07:35;;;;;;;2.50;2.00;;;;;;;27.93;46.35;99624.25;93704;1205;79487;-66
2021/08/07 10:09:43;;;;;;;2.60;2.00;;;;;;;27.83;46.53;99613.81;93745;1204;80434;-68